createdAt,value
2019-01-24T00:02:12.150Z,47.52
2019-01-24T00:04:38.375Z,47.50
2019-01-24T00:07:06.641Z,47.47
2019-01-24T00:09:33.585Z,47.48
2019-01-24T00:11:59.623Z,47.48
2019-01-24T00:14:26.283Z,47.50
2019-01-24T00:16:52.817Z,47.45
2019-01-24T00:19:19.044Z,47.47
2019-01-24T00:21:45.445Z,47.45
2019-01-24T00:24:12.499Z,47.43
2019-01-24T00:26:38.521Z,47.43
2019-01-24T00:29:04.520Z,47.42
2019-01-24T00:31:30.558Z,47.43
2019-01-24T00:33:57.532Z,47.43
2019-01-24T00:36:23.531Z,47.39
2019-01-24T00:38:49.562Z,47.37
2019-01-24T00:41:15.594Z,47.40
2019-01-24T00:43:41.638Z,47.39
2019-01-24T00:46:08.091Z,47.39
2019-01-24T00:48:34.279Z,47.37
2019-01-24T00:51:00.325Z,47.37
2019-01-24T00:53:26.318Z,47.35
2019-01-24T00:55:52.319Z,47.34
2019-01-24T00:58:18.352Z,47.36
2019-01-24T01:00:44.351Z,47.35
2019-01-24T01:03:10.394Z,47.35
2019-01-24T01:05:36.407Z,47.36
2019-01-24T01:08:02.401Z,47.33
2019-01-24T01:10:28.429Z,47.33
2019-01-24T01:12:54.468Z,47.33
2019-01-24T01:15:20.508Z,47.34
2019-01-24T01:17:46.494Z,47.32
2019-01-24T01:20:12.545Z,47.35
2019-01-24T01:22:38.536Z,47.30
2019-01-24T01:25:04.526Z,47.31
2019-01-24T01:27:30.559Z,47.31
2019-01-24T01:29:56.552Z,47.28
2019-01-24T01:32:22.613Z,47.27
2019-01-24T01:34:48.581Z,47.28
2019-01-24T01:37:14.615Z,47.25
2019-01-24T01:39:40.611Z,47.26
2019-01-24T01:42:06.602Z,47.25
2019-01-24T01:44:32.637Z,47.29
2019-01-24T01:46:58.631Z,47.25
2019-01-24T01:49:24.628Z,47.28
2019-01-24T01:51:50.659Z,47.23
2019-01-24T01:54:16.655Z,47.24
2019-01-24T01:56:42.691Z,47.26
2019-01-24T01:59:08.687Z,47.21
2019-01-24T02:01:34.683Z,47.23
2019-01-24T02:04:00.716Z,47.22
2019-01-24T02:06:26.711Z,47.22
2019-01-24T02:08:52.729Z,47.20
2019-01-24T02:11:18.763Z,47.21
2019-01-24T02:13:44.766Z,47.21
2019-01-24T02:16:10.795Z,47.22
2019-01-24T02:18:36.796Z,47.21
2019-01-24T02:21:02.791Z,47.19
2019-01-24T02:23:28.831Z,47.19
2019-01-24T02:25:54.828Z,47.17
2019-01-24T02:28:20.826Z,47.19
2019-01-24T02:30:46.857Z,47.17
2019-01-24T02:33:12.876Z,47.17
2019-01-24T02:35:38.885Z,47.18
2019-01-24T02:38:04.875Z,47.17
2019-01-24T02:40:30.866Z,47.16
2019-01-24T02:42:56.906Z,47.15
2019-01-24T02:45:22.899Z,47.17
2019-01-24T02:47:48.902Z,47.17
2019-01-24T02:50:14.933Z,47.15
2019-01-24T02:52:40.931Z,47.14
2019-01-24T02:55:06.923Z,47.13
2019-01-24T02:57:32.958Z,47.14
2019-01-24T02:59:58.955Z,47.12
2019-01-24T03:02:24.955Z,47.12
2019-01-24T03:04:56.886Z,47.14
2019-01-24T03:07:16.986Z,47.14
2019-01-24T03:09:42.984Z,47.12
2019-01-24T03:12:09.016Z,47.13
2019-01-24T03:14:35.056Z,47.11
2019-01-24T03:17:01.046Z,47.11
2019-01-24T03:19:27.050Z,47.11
2019-01-24T03:21:53.082Z,47.11
2019-01-24T03:24:19.088Z,47.10
2019-01-24T03:26:45.090Z,47.10
2019-01-24T03:29:11.123Z,47.09
2019-01-24T03:31:37.120Z,47.10
2019-01-24T03:34:03.122Z,47.08
2019-01-24T03:36:29.159Z,47.07
2019-01-24T03:38:55.168Z,47.07
2019-01-24T03:41:21.146Z,47.08
2019-01-24T03:43:47.184Z,47.07
2019-01-24T03:46:13.181Z,47.06
2019-01-24T03:48:39.219Z,47.06
2019-01-24T03:51:05.212Z,47.06
2019-01-24T03:53:31.207Z,47.07
2019-01-24T03:55:57.254Z,47.07
2019-01-24T03:58:23.252Z,47.07
2019-01-24T04:00:49.246Z,47.05
2019-01-24T04:03:15.274Z,47.04
2019-01-24T04:05:41.306Z,47.07
2019-01-24T04:08:07.662Z,47.05
2019-01-24T04:10:33.934Z,47.04
2019-01-24T04:12:59.975Z,47.03
2019-01-24T04:15:25.974Z,47.03
2019-01-24T04:17:51.963Z,47.04
2019-01-24T04:20:17.999Z,47.02
2019-01-24T04:22:44.021Z,47.02
2019-01-24T04:25:10.030Z,47.02
2019-01-24T04:27:36.081Z,47.02
2019-01-24T04:30:02.075Z,47.02
2019-01-24T04:32:28.072Z,47.01
2019-01-24T04:34:54.115Z,47.02
2019-01-24T04:37:20.107Z,47.01
2019-01-24T04:39:46.104Z,47.00
2019-01-24T04:42:12.141Z,47.00
2019-01-24T04:44:38.137Z,47.00
2019-01-24T04:47:04.131Z,47.01
2019-01-24T04:49:30.183Z,47.00
2019-01-24T04:51:56.211Z,47.00
2019-01-24T04:54:22.207Z,47.00
2019-01-24T04:56:48.243Z,47.01
2019-01-24T04:59:14.245Z,47.02
2019-01-24T05:01:40.244Z,47.01
2019-01-24T05:04:06.299Z,46.99
2019-01-24T05:06:32.294Z,47.02
2019-01-24T05:08:58.287Z,47.01
2019-01-24T05:11:24.340Z,47.00
2019-01-24T05:13:50.336Z,47.00
2019-01-24T05:16:16.349Z,46.99
2019-01-24T05:18:42.387Z,46.98
2019-01-24T05:21:08.388Z,47.01
2019-01-24T05:23:34.396Z,46.98
2019-01-24T05:26:00.430Z,46.99
2019-01-24T05:28:26.425Z,47.01
2019-01-24T05:30:52.482Z,47.01
2019-01-24T05:33:18.531Z,46.98
2019-01-24T05:35:44.526Z,47.04
2019-01-24T05:38:10.531Z,47.12
2019-01-24T05:40:36.570Z,47.13
2019-01-24T05:43:02.562Z,47.16
2019-01-24T05:45:28.588Z,47.19
2019-01-24T05:47:54.621Z,47.22
2019-01-24T05:50:20.621Z,47.28
2019-01-24T05:52:46.615Z,47.39
2019-01-24T05:55:12.689Z,47.56
2019-01-24T05:57:38.710Z,47.66
2019-01-24T06:00:04.716Z,47.74
2019-01-24T06:02:30.765Z,47.89
2019-01-24T06:04:56.768Z,47.99
2019-01-24T06:07:22.775Z,48.09
2019-01-24T06:09:48.830Z,48.40
2019-01-24T06:12:14.837Z,48.47
2019-01-24T06:14:40.845Z,48.71
2019-01-24T06:17:06.881Z,48.85
2019-01-24T06:19:32.880Z,49.02
2019-01-24T06:21:58.872Z,49.13
2019-01-24T06:24:25.495Z,49.12
2019-01-24T06:26:51.496Z,49.28
2019-01-24T06:29:17.490Z,49.23
2019-01-24T06:31:43.565Z,49.12
2019-01-24T06:34:09.571Z,49.17
2019-01-24T06:36:35.589Z,49.01
2019-01-24T06:39:01.648Z,49.08
2019-01-24T06:41:27.647Z,48.99
2019-01-24T06:43:53.643Z,49.05
2019-01-24T06:46:19.820Z,48.98
2019-01-24T06:48:45.816Z,48.92
2019-01-24T06:51:11.881Z,48.77
2019-01-24T06:53:37.882Z,48.84
2019-01-24T06:56:04.818Z,48.76
2019-01-24T06:58:31.110Z,48.86
2019-01-24T07:00:57.106Z,48.98
2019-01-24T07:03:23.102Z,48.91
2019-01-24T07:05:55.197Z,49.15
2019-01-24T07:08:15.296Z,49.24
2019-01-24T07:10:41.294Z,49.36
2019-01-24T07:13:07.346Z,49.55
2019-01-24T07:15:33.338Z,49.63
2019-01-24T07:17:59.340Z,49.90
2019-01-24T07:20:25.407Z,49.80
2019-01-24T07:22:51.400Z,49.81
2019-01-24T07:25:17.455Z,49.60
2019-01-24T07:27:43.495Z,49.61
2019-01-24T07:30:09.513Z,49.78
2019-01-24T07:32:35.512Z,49.59
2019-01-24T07:35:01.560Z,49.47
2019-01-24T07:37:27.559Z,49.50
2019-01-24T07:39:53.588Z,49.38
2019-01-24T07:42:19.610Z,49.51
2019-01-24T07:44:45.604Z,49.60
2019-01-24T07:47:11.607Z,49.60
2019-01-24T07:49:37.970Z,49.66
2019-01-24T07:52:03.959Z,49.83
2019-01-24T07:54:29.959Z,50.02
2019-01-24T07:56:56.005Z,49.87
2019-01-24T07:59:22.008Z,49.85
2019-01-24T08:01:48.020Z,49.92
2019-01-24T08:04:14.050Z,49.81
2019-01-24T08:06:40.181Z,49.90
2019-01-24T08:09:06.183Z,49.84
2019-01-24T08:11:32.218Z,49.83
2019-01-24T08:13:58.215Z,49.83
2019-01-24T08:16:24.219Z,49.85
2019-01-24T08:18:50.259Z,49.90
2019-01-24T08:21:16.265Z,49.97
2019-01-24T08:23:42.265Z,49.92
2019-01-24T08:26:08.300Z,49.67
2019-01-24T08:28:34.335Z,49.66
2019-01-24T08:31:00.339Z,49.64
2019-01-24T08:33:26.373Z,49.98
2019-01-24T08:35:52.382Z,49.59
2019-01-24T08:38:18.505Z,49.67
2019-01-24T08:40:44.506Z,49.60
2019-01-24T08:43:10.500Z,49.54
2019-01-24T08:45:36.546Z,49.58
2019-01-24T08:48:02.550Z,49.67
2019-01-24T08:50:28.609Z,49.50
2019-01-24T08:52:54.836Z,49.59
2019-01-24T08:55:20.859Z,49.79
2019-01-24T08:57:46.850Z,49.95
2019-01-24T09:00:12.900Z,49.58
2019-01-24T09:02:38.894Z,49.51
2019-01-24T09:05:04.886Z,49.39
2019-01-24T09:07:30.999Z,49.38
2019-01-24T09:09:56.987Z,49.41
2019-01-24T09:12:23.041Z,49.31
2019-01-24T09:14:49.178Z,49.52
2019-01-24T09:17:15.224Z,49.47
2019-01-24T09:19:41.263Z,49.50
2019-01-24T09:22:07.259Z,49.60
2019-01-24T09:24:33.255Z,49.47
2019-01-24T09:26:59.296Z,49.49
2019-01-24T09:29:25.688Z,49.46
2019-01-24T09:31:51.690Z,49.46
2019-01-24T09:34:17.885Z,49.38
2019-01-24T09:36:43.880Z,49.45
2019-01-24T09:39:09.875Z,49.37
2019-01-24T09:41:35.919Z,49.40
2019-01-24T09:44:01.920Z,49.30
2019-01-24T09:46:27.912Z,49.33
2019-01-24T09:48:54.536Z,49.37
2019-01-24T09:51:20.582Z,49.41
2019-01-24T09:53:46.590Z,49.63
2019-01-24T09:56:12.582Z,49.38
2019-01-24T09:58:38.619Z,49.39
2019-01-24T10:01:04.669Z,49.74
2019-01-24T10:03:30.676Z,50.02
2019-01-24T10:05:56.671Z,49.68
2019-01-24T10:08:22.700Z,49.41
2019-01-24T10:10:48.695Z,49.44
2019-01-24T10:13:14.750Z,49.70
2019-01-24T10:15:40.749Z,49.47
2019-01-24T10:18:06.748Z,49.74
2019-01-24T10:20:32.819Z,49.69
2019-01-24T10:22:58.817Z,49.42
2019-01-24T10:33:19.124Z,49.11
2019-01-24T10:35:45.124Z,49.09
2019-01-24T10:38:11.699Z,49.08
2019-01-24T10:40:37.700Z,49.19
2019-01-24T10:43:03.700Z,49.63
2019-01-24T10:45:29.737Z,49.29
2019-01-24T10:47:55.733Z,49.51
2019-01-24T10:50:21.730Z,49.46
2019-01-24T10:52:47.768Z,49.55
2019-01-24T10:55:13.781Z,49.52
2019-01-24T10:57:39.779Z,49.49
2019-01-24T11:00:05.846Z,49.90
2019-01-24T11:02:31.841Z,49.52
2019-01-24T11:04:57.835Z,49.81
2019-01-24T11:07:23.882Z,49.53
2019-01-24T11:09:49.876Z,50.18
2019-01-24T11:12:15.873Z,49.62
2019-01-24T11:14:41.960Z,50.16
2019-01-24T11:17:07.926Z,49.77
2019-01-24T11:19:33.958Z,49.72
2019-01-24T11:21:59.961Z,49.69
2019-01-24T11:24:25.961Z,49.77
2019-01-24T11:26:52.084Z,49.62
2019-01-24T11:29:18.083Z,49.71
2019-01-24T11:31:44.086Z,49.56
2019-01-24T11:34:12.504Z,49.51
2019-01-24T11:36:38.499Z,49.56
2019-01-24T11:39:04.555Z,49.41
2019-01-24T11:41:30.554Z,49.44
2019-01-24T11:43:56.552Z,49.44
2019-01-24T11:46:22.620Z,49.36
2019-01-24T11:48:48.640Z,49.30
2019-01-24T11:51:14.634Z,49.24
2019-01-24T11:53:40.670Z,49.04
2019-01-24T11:56:07.685Z,49.00
2019-01-24T11:58:32.656Z,48.94
2019-01-24T12:00:58.706Z,48.81
2019-01-24T12:03:24.703Z,48.74
2019-01-24T12:05:50.712Z,48.65
2019-01-24T12:08:16.760Z,48.53
2019-01-24T12:10:42.760Z,48.49
2019-01-24T12:13:08.761Z,48.46
2019-01-24T12:15:34.800Z,48.37
2019-01-24T12:18:00.807Z,48.30
2019-01-24T12:20:26.794Z,48.24
2019-01-24T12:22:52.836Z,48.20
2019-01-24T12:25:18.832Z,48.21
2019-01-24T12:27:44.877Z,48.05
2019-01-24T12:30:10.873Z,48.01
2019-01-24T12:32:36.871Z,47.98
2019-01-24T12:35:02.927Z,47.95
2019-01-24T12:37:28.925Z,47.92
2019-01-24T12:39:55.494Z,47.86
2019-01-24T12:42:20.957Z,47.83
2019-01-24T12:44:46.952Z,47.82
2019-01-24T12:47:12.948Z,47.79
2019-01-24T12:49:39.003Z,47.76
2019-01-24T12:52:05.049Z,47.71
2019-01-24T12:54:31.082Z,47.69
2019-01-24T12:56:57.120Z,47.69
2019-01-24T12:59:23.120Z,47.70
2019-01-24T13:01:49.115Z,47.62
2019-01-24T13:04:15.159Z,47.60
2019-01-24T13:06:41.156Z,47.53
2019-01-24T13:09:07.159Z,47.52
2019-01-24T13:11:33.211Z,47.50
2019-01-24T13:13:59.203Z,47.43
2019-01-24T13:16:25.237Z,47.44
2019-01-24T13:18:51.248Z,47.41
2019-01-24T13:21:17.244Z,47.38
2019-01-24T13:23:43.240Z,47.33
2019-01-24T13:26:09.280Z,47.31
2019-01-24T13:28:35.306Z,47.30
2019-01-24T13:31:01.300Z,47.25
2019-01-24T13:33:27.345Z,47.12
2019-01-24T13:35:54.409Z,47.14
2019-01-24T13:38:20.394Z,47.10
2019-01-24T13:40:46.432Z,47.08
2019-01-24T13:43:12.439Z,47.08
2019-01-24T13:45:38.438Z,46.94
2019-01-24T13:48:04.482Z,46.97
2019-01-24T13:50:30.471Z,46.96
2019-01-24T13:52:56.467Z,46.85
2019-01-24T13:55:22.523Z,46.88
2019-01-24T13:57:48.522Z,46.76
2019-01-24T14:00:14.514Z,46.82
2019-01-24T14:02:40.564Z,46.74
2019-01-24T14:05:06.560Z,46.71
2019-01-24T14:07:33.098Z,46.71
2019-01-24T14:09:58.604Z,46.77
2019-01-24T14:12:24.598Z,46.64
2019-01-24T14:14:50.589Z,46.62
2019-01-24T14:17:16.635Z,46.67
2019-01-24T14:19:42.631Z,46.57
2019-01-24T14:22:08.633Z,46.58
2019-01-24T14:24:34.682Z,46.56
2019-01-24T14:27:00.711Z,46.52
2019-01-24T14:29:26.707Z,46.46
2019-01-24T14:31:52.748Z,46.50
2019-01-24T14:34:18.739Z,46.53
2019-01-24T14:36:44.734Z,46.40
2019-01-24T14:39:10.780Z,46.37
2019-01-24T14:41:36.778Z,46.24
2019-01-24T14:44:02.778Z,46.35
2019-01-24T14:46:28.824Z,46.43
2019-01-24T14:48:54.825Z,46.33
2019-01-24T14:51:20.816Z,46.35
2019-01-24T14:53:46.890Z,46.28
2019-01-24T14:56:12.882Z,46.36
2019-01-24T14:58:38.879Z,46.29
2019-01-24T15:01:04.923Z,46.23
2019-01-24T15:03:30.922Z,46.22
2019-01-24T15:05:56.918Z,46.30
2019-01-24T15:08:22.969Z,46.41
2019-01-24T15:10:48.968Z,46.48
2019-01-24T15:13:14.959Z,46.53
2019-01-24T15:15:40.994Z,46.59
2019-01-24T15:18:06.986Z,46.73
2019-01-24T15:20:33.023Z,46.73
2019-01-24T15:22:59.036Z,46.73
2019-01-24T15:25:25.290Z,46.76
2019-01-24T15:27:51.314Z,46.70
2019-01-24T15:30:17.306Z,46.70
2019-01-24T15:32:43.302Z,46.76
2019-01-24T15:35:09.423Z,46.73
2019-01-24T15:37:35.421Z,46.67
2019-01-24T15:40:01.429Z,46.63
2019-01-24T15:42:27.512Z,46.62
2019-01-24T15:44:53.643Z,46.64
2019-01-24T15:47:19.674Z,46.60
2019-01-24T15:49:45.857Z,46.50
2019-01-24T15:52:11.856Z,46.54
2019-01-24T15:54:37.854Z,46.46
2019-01-24T15:57:03.894Z,46.41
2019-01-24T15:59:29.888Z,46.55
2019-01-24T16:01:55.900Z,46.49
2019-01-24T16:04:21.989Z,46.56
2019-01-24T16:06:48.018Z,46.67
2019-01-24T16:09:14.010Z,46.69
2019-01-24T16:11:40.009Z,46.81
2019-01-24T16:14:06.129Z,46.82
2019-01-24T16:16:32.124Z,46.82
2019-01-24T16:18:58.178Z,46.91
2019-01-24T16:21:24.224Z,46.90
2019-01-24T16:23:50.173Z,46.81
2019-01-24T16:26:16.224Z,46.72
2019-01-24T16:28:42.215Z,46.61
2019-01-24T16:31:08.235Z,46.69
2019-01-24T16:33:34.288Z,46.73
2019-01-24T16:36:00.619Z,46.74
2019-01-24T16:38:26.788Z,46.76
2019-01-24T16:40:56.089Z,46.81
2019-01-24T16:43:25.091Z,46.80
2019-01-24T16:45:51.243Z,46.77
2019-01-24T16:48:18.062Z,46.74
2019-01-24T16:50:45.919Z,46.75
2019-01-24T16:53:11.994Z,46.77
2019-01-24T16:55:37.998Z,46.81
2019-01-24T16:58:04.011Z,46.87
2019-01-24T17:00:31.236Z,46.85
2019-01-24T17:02:57.401Z,46.87
2019-01-24T17:05:23.653Z,46.93
2019-01-24T17:07:49.667Z,47.03
2019-01-24T17:10:15.959Z,47.08
2019-01-24T17:12:45.410Z,47.12
2019-01-24T17:15:11.817Z,47.12
2019-01-24T17:17:37.820Z,47.23
2019-01-24T17:20:03.858Z,47.16
2019-01-24T17:22:29.864Z,47.08
2019-01-24T17:24:55.909Z,46.97
2019-01-24T17:27:22.123Z,46.92
2019-01-24T17:29:48.125Z,46.91
2019-01-24T17:32:14.312Z,46.84
2019-01-24T17:34:40.362Z,46.85
2019-01-24T17:37:06.367Z,46.95
2019-01-24T17:39:32.379Z,47.00
2019-01-24T17:41:58.424Z,47.01
2019-01-24T17:44:24.423Z,46.95
2019-01-24T17:46:51.009Z,46.86
2019-01-24T17:49:22.792Z,46.82
2019-01-24T17:51:49.035Z,46.87
2019-01-24T17:54:15.296Z,46.95
2019-01-24T17:56:41.355Z,47.01
2019-01-24T17:59:07.355Z,47.07
2019-01-24T18:01:33.357Z,47.11
2019-01-24T18:03:59.573Z,47.16
2019-01-24T18:06:25.682Z,47.32
2019-01-24T18:08:51.660Z,47.37
2019-01-24T18:11:17.695Z,47.39
2019-01-24T18:13:43.779Z,47.39
2019-01-24T18:16:09.845Z,47.41
2019-01-24T18:18:35.851Z,47.50
2019-01-24T18:21:01.871Z,47.54
2019-01-24T18:23:30.404Z,47.66
2019-01-24T18:25:56.549Z,47.62
2019-01-24T18:28:22.719Z,47.71
2019-01-24T18:30:48.771Z,47.66
2019-01-24T18:33:14.904Z,47.70
2019-01-24T18:35:41.383Z,47.62
2019-01-24T18:38:07.430Z,47.64
2019-01-24T18:40:34.141Z,47.64
2019-01-24T18:43:00.162Z,47.71
2019-01-24T18:45:26.234Z,47.73
2019-01-24T18:47:52.272Z,47.81
2019-01-24T18:50:18.271Z,47.83
2019-01-24T18:52:45.558Z,47.90
2019-01-24T18:55:10.324Z,47.80
2019-01-24T18:57:36.315Z,47.90
2019-01-24T19:00:03.606Z,48.04
2019-01-24T19:02:29.566Z,48.06
2019-01-24T19:04:55.633Z,48.04
2019-01-24T19:07:21.668Z,48.05
2019-01-24T19:09:47.659Z,48.07
2019-01-24T19:12:13.660Z,48.32
2019-01-24T19:14:39.914Z,48.46
2019-01-24T19:17:06.228Z,48.42
2019-01-24T19:19:32.300Z,48.49
2019-01-24T19:22:00.626Z,48.47
2019-01-24T19:24:26.872Z,48.46
2019-01-24T19:26:53.208Z,48.49
2019-01-24T19:29:19.729Z,48.46
2019-01-24T19:31:45.953Z,48.46
2019-01-24T19:34:12.160Z,48.48
2019-01-24T19:36:38.358Z,48.55
2019-01-24T19:39:04.588Z,48.42
2019-01-24T19:41:30.586Z,48.43
2019-01-24T19:43:56.583Z,48.36
2019-01-24T19:46:22.617Z,48.34
2019-01-24T19:48:48.792Z,48.32
2019-01-24T19:51:14.903Z,48.32
2019-01-24T19:53:41.285Z,48.39
2019-01-24T19:56:07.250Z,48.31
2019-01-24T19:58:33.244Z,48.34
2019-01-24T20:00:59.297Z,48.39
2019-01-24T20:03:25.290Z,48.35
2019-01-24T20:05:51.283Z,48.44
2019-01-24T20:08:19.574Z,48.30
2019-01-24T20:10:45.576Z,48.31
2019-01-24T20:13:11.579Z,48.29
2019-01-24T20:15:37.699Z,48.32
2019-01-24T20:18:03.697Z,48.28
2019-01-24T20:20:29.707Z,48.28
2019-01-24T20:22:55.748Z,48.28
2019-01-24T20:25:21.748Z,48.28
2019-01-24T20:27:47.782Z,48.28
2019-01-24T20:30:13.792Z,48.31
2019-01-24T20:32:39.788Z,48.25
2019-01-24T20:35:05.798Z,48.31
2019-01-24T20:37:31.836Z,48.29
2019-01-24T20:39:57.878Z,48.36
2019-01-24T20:42:23.845Z,48.31
2019-01-24T20:44:49.896Z,48.28
2019-01-24T20:47:15.895Z,48.26
2019-01-24T20:49:42.135Z,48.28
2019-01-24T20:52:08.508Z,48.25
2019-01-24T20:54:34.508Z,48.27
2019-01-24T20:57:00.508Z,48.23
2019-01-24T20:59:26.553Z,48.27
2019-01-24T21:01:52.553Z,48.29
2019-01-24T21:04:18.546Z,48.25
2019-01-24T21:06:44.580Z,48.23
2019-01-24T21:09:14.735Z,48.25
2019-01-24T21:11:36.613Z,48.36
2019-01-24T21:14:02.613Z,48.29
2019-01-24T21:16:28.662Z,48.39
2019-01-24T21:18:54.662Z,48.28
2019-01-24T21:21:20.656Z,48.27
2019-01-24T21:23:46.688Z,48.29
2019-01-24T21:26:12.696Z,48.30
2019-01-24T21:28:39.941Z,48.32
2019-01-24T21:31:05.096Z,48.29
2019-01-24T21:33:31.097Z,48.30
2019-01-24T21:35:57.092Z,48.32
2019-01-24T21:38:23.158Z,48.28
2019-01-24T21:40:49.155Z,48.29
2019-01-24T21:43:15.151Z,48.33
2019-01-24T21:45:42.219Z,48.31
2019-01-24T21:48:08.231Z,48.31
2019-01-24T21:50:34.227Z,48.33
2019-01-24T21:53:00.268Z,48.32
2019-01-24T21:55:26.264Z,48.31
2019-01-24T21:57:52.315Z,48.45
2019-01-24T22:00:18.312Z,48.32
2019-01-24T22:02:44.311Z,48.36
2019-01-24T22:05:10.564Z,48.32
2019-01-24T22:07:36.563Z,48.34
2019-01-24T22:10:04.449Z,48.33
2019-01-24T22:12:32.494Z,48.35
2019-01-24T22:14:58.487Z,48.26
2019-01-24T22:17:24.489Z,48.26
2019-01-24T22:19:50.528Z,48.26
2019-01-24T22:22:16.527Z,48.20
2019-01-24T22:24:42.570Z,48.24
2019-01-24T22:27:08.563Z,48.18
2019-01-24T22:29:34.560Z,48.10
2019-01-24T22:32:00.595Z,48.11
2019-01-24T22:34:26.599Z,48.09
2019-01-24T22:36:52.639Z,48.07
2019-01-24T22:39:18.636Z,48.08
2019-01-24T22:41:44.684Z,48.05
2019-01-24T22:44:10.679Z,48.04
2019-01-24T22:46:36.683Z,48.04
2019-01-24T22:49:02.732Z,48.01
2019-01-24T22:51:28.715Z,47.99
2019-01-24T22:53:54.712Z,48.00
2019-01-24T22:56:20.749Z,47.96
2019-01-24T22:58:46.743Z,47.93
2019-01-24T23:01:12.740Z,47.94
2019-01-24T23:03:38.779Z,47.92
2019-01-24T23:06:04.774Z,47.91
2019-01-24T23:08:30.775Z,47.88
2019-01-24T23:10:56.812Z,47.89
2019-01-24T23:13:22.810Z,47.87
2019-01-24T23:15:48.804Z,47.85
2019-01-24T23:18:14.839Z,47.87
2019-01-24T23:20:40.835Z,47.83
2019-01-24T23:23:06.823Z,47.83
2019-01-24T23:25:32.865Z,47.82
2019-01-24T23:27:58.855Z,47.82
2019-01-24T23:30:24.857Z,47.78
2019-01-24T23:32:50.899Z,47.78
2019-01-24T23:35:16.896Z,47.78
2019-01-24T23:37:42.898Z,47.75
2019-01-24T23:40:08.935Z,47.75
2019-01-24T23:42:34.931Z,47.79
2019-01-24T23:45:00.975Z,47.73
2019-01-24T23:47:27.008Z,47.73
2019-01-24T23:49:53.005Z,47.71
2019-01-24T23:52:19.036Z,47.71
2019-01-24T23:54:45.031Z,47.69
2019-01-24T23:57:11.067Z,47.70
2019-01-24T23:59:37.058Z,47.68
